createdAt,value
2023-03-03T00:01:55.191Z,0.50
2023-03-03T00:04:22.056Z,0.40
2023-03-03T00:06:48.937Z,0.40
2023-03-03T00:09:15.830Z,0.30
2023-03-03T00:11:42.733Z,0.20
2023-03-03T00:14:28.138Z,0.20
2023-03-03T00:16:57.479Z,0.10
2023-03-03T00:19:24.463Z,0.10
2023-03-03T00:21:57.789Z,-0.10
2023-03-03T00:24:34.714Z,-0.20
2023-03-03T00:27:23.221Z,-0.20
2023-03-03T00:29:57.704Z,-0.20
2023-03-03T00:32:43.780Z,-0.20
2023-03-03T00:35:35.738Z,-0.40
2023-03-03T00:38:19.401Z,-0.50
2023-03-03T00:40:48.326Z,-0.70
2023-03-03T00:43:23.938Z,-0.80
2023-03-03T00:46:00.731Z,-1.00
2023-03-03T00:48:51.264Z,-1.10
2023-03-03T00:51:34.244Z,-1.20
2023-03-03T00:54:01.318Z,-1.20
2023-03-03T00:56:28.297Z,-1.20
2023-03-03T00:58:55.188Z,-1.10
2023-03-03T01:01:22.587Z,-1.20
2023-03-03T01:03:49.650Z,-1.20
2023-03-03T01:06:16.863Z,-1.30
2023-03-03T01:08:43.806Z,-1.40
2023-03-03T01:11:28.441Z,-1.50
2023-03-03T01:13:56.954Z,-1.50
2023-03-03T01:16:24.108Z,-1.40
2023-03-03T01:18:51.037Z,-1.50
2023-03-03T01:21:18.006Z,-1.50
2023-03-03T01:23:44.916Z,-1.40
2023-03-03T01:26:11.792Z,-1.40
2023-03-03T01:28:38.696Z,-1.30
2023-03-03T01:31:06.794Z,-1.30
2023-03-03T01:33:36.275Z,-1.30
2023-03-03T01:36:04.320Z,-1.40
2023-03-03T01:38:31.261Z,-1.50
2023-03-03T01:41:00.189Z,-1.40
2023-03-03T01:43:32.846Z,-1.50
2023-03-03T01:45:59.603Z,-1.50
2023-03-03T01:48:44.576Z,-1.60
2023-03-03T01:51:30.721Z,-1.70
2023-03-03T01:54:14.678Z,-1.70
2023-03-03T01:56:44.132Z,-1.70
2023-03-03T01:59:29.067Z,-1.70
2023-03-03T02:01:56.082Z,-1.70
2023-03-03T02:04:23.481Z,-1.70
2023-03-03T02:07:01.785Z,-1.80
2023-03-03T02:10:07.325Z,-1.80
2023-03-03T02:12:48.153Z,-1.80
2023-03-03T02:15:25.459Z,-1.70
2023-03-03T02:18:09.418Z,-1.70
2023-03-03T02:21:02.185Z,-1.70
2023-03-03T02:23:45.826Z,-1.70
2023-03-03T02:26:17.409Z,-1.80
2023-03-03T02:28:44.678Z,-1.80
2023-03-03T02:31:18.670Z,-1.70
2023-03-03T02:33:51.338Z,-1.80
2023-03-03T02:36:33.151Z,-1.80
2023-03-03T02:39:27.508Z,-1.80
2023-03-03T02:42:16.481Z,-1.90
2023-03-03T02:44:43.492Z,-2.00
2023-03-03T02:47:10.570Z,-2.00
2023-03-03T02:49:38.063Z,-2.10
2023-03-03T02:52:10.524Z,-2.10
2023-03-03T02:54:38.801Z,-2.20
2023-03-03T02:57:07.127Z,-2.10
2023-03-03T02:59:34.074Z,-2.20
2023-03-03T03:02:01.013Z,-2.30
2023-03-03T03:04:28.382Z,-2.30
2023-03-03T03:06:56.240Z,-2.30
2023-03-03T03:09:25.451Z,-2.30
2023-03-03T03:11:53.008Z,-2.40
2023-03-03T03:14:19.989Z,-2.40
2023-03-03T03:16:46.902Z,-2.40
2023-03-03T03:19:14.030Z,-2.50
2023-03-03T03:21:41.081Z,-2.50
2023-03-03T03:24:08.108Z,-2.60
2023-03-03T03:26:35.025Z,-2.60
2023-03-03T03:29:01.957Z,-2.70
2023-03-03T03:31:28.943Z,-2.80
2023-03-03T03:33:55.819Z,-2.80
2023-03-03T03:36:22.865Z,-2.80
2023-03-03T03:38:49.810Z,-2.80
2023-03-03T03:41:16.767Z,-2.80
2023-03-03T03:43:43.630Z,-2.80
2023-03-03T03:46:10.637Z,-2.90
2023-03-03T03:48:37.682Z,-2.90
2023-03-03T03:51:05.401Z,-2.90
2023-03-03T03:53:32.692Z,-3.00
2023-03-03T03:55:59.678Z,-3.10
2023-03-03T03:58:26.780Z,-3.10
2023-03-03T04:00:54.395Z,-3.10
2023-03-03T04:03:21.789Z,-3.10
2023-03-03T04:05:50.948Z,-3.10
2023-03-03T04:08:17.916Z,-3.10
2023-03-03T04:10:44.768Z,-3.10
2023-03-03T04:13:11.660Z,-3.00
2023-03-03T04:15:38.603Z,-2.90
2023-03-03T04:18:06.086Z,-2.80
2023-03-03T04:20:33.114Z,-2.70
2023-03-03T04:23:00.151Z,-2.80
2023-03-03T04:25:27.270Z,-2.80
2023-03-03T04:27:54.352Z,-2.80
2023-03-03T04:30:21.859Z,-2.90
2023-03-03T04:32:49.524Z,-3.00
2023-03-03T04:35:16.490Z,-3.10
2023-03-03T04:37:43.515Z,-3.20
2023-03-03T04:40:11.762Z,-3.20
2023-03-03T04:42:38.868Z,-3.20
2023-03-03T04:45:06.957Z,-3.10
2023-03-03T04:47:34.034Z,-3.20
2023-03-03T04:50:01.012Z,-3.30
2023-03-03T04:52:28.410Z,-3.30
2023-03-03T04:54:55.673Z,-3.20
2023-03-03T04:57:22.685Z,-3.30
2023-03-03T04:59:49.794Z,-3.30
2023-03-03T05:02:17.324Z,-3.40
2023-03-03T05:04:44.352Z,-3.40
2023-03-03T05:07:11.296Z,-3.50
2023-03-03T05:09:38.299Z,-3.60
2023-03-03T05:12:05.951Z,-3.60
2023-03-03T05:14:32.938Z,-3.70
2023-03-03T05:17:00.015Z,-3.80
2023-03-03T05:19:27.401Z,-3.80
2023-03-03T05:21:54.763Z,-3.70
2023-03-03T05:24:21.671Z,-3.70
2023-03-03T05:26:49.690Z,-3.60
2023-03-03T05:29:16.694Z,-3.50
2023-03-03T05:31:45.573Z,-3.70
2023-03-03T05:34:12.720Z,-3.70
2023-03-03T05:36:39.670Z,-3.70
2023-03-03T05:39:06.712Z,-3.60
2023-03-03T05:41:36.688Z,-3.70
2023-03-03T05:44:04.048Z,-3.80
2023-03-03T05:46:31.035Z,-3.60
2023-03-03T05:48:57.951Z,-3.70
2023-03-03T05:51:24.832Z,-3.70
2023-03-03T05:53:51.678Z,-3.70
2023-03-03T05:56:18.563Z,-3.80
2023-03-03T05:58:46.126Z,-3.70
2023-03-03T06:01:13.128Z,-3.60
2023-03-03T06:03:40.028Z,-3.50
2023-03-03T06:06:09.007Z,-3.60
2023-03-03T06:08:35.932Z,-3.60
2023-03-03T06:11:03.249Z,-3.70
2023-03-03T06:13:30.285Z,-3.70
2023-03-03T06:15:57.366Z,-3.70
2023-03-03T06:18:24.358Z,-3.50
2023-03-03T06:20:53.903Z,-3.30
2023-03-03T06:23:22.351Z,-3.20
2023-03-03T06:25:49.296Z,-2.90
2023-03-03T06:28:16.194Z,-2.70
2023-03-03T06:30:43.118Z,-2.40
2023-03-03T06:33:09.999Z,-2.20
2023-03-03T06:35:37.721Z,-2.00
2023-03-03T06:38:04.675Z,-1.70
2023-03-03T06:40:31.597Z,-1.50
2023-03-03T06:42:58.433Z,-1.30
2023-03-03T06:45:25.301Z,-1.20
2023-03-03T06:47:52.166Z,-1.00
2023-03-03T06:50:21.475Z,-0.90
2023-03-03T06:52:48.686Z,-0.80
2023-03-03T06:55:23.796Z,-0.70
2023-03-03T06:57:50.877Z,-0.60
2023-03-03T07:00:30.715Z,-0.40
2023-03-03T07:03:12.508Z,-0.30
2023-03-03T07:05:39.443Z,-0.20
2023-03-03T07:08:32.092Z,-0.20
2023-03-03T07:11:16.115Z,-0.10
2023-03-03T07:13:53.576Z,0.10
2023-03-03T07:16:27.986Z,0.40
2023-03-03T07:18:54.795Z,1.00
2023-03-03T07:21:36.815Z,1.60
2023-03-03T07:24:28.745Z,2.40
2023-03-03T07:27:07.675Z,3.10
2023-03-03T07:29:35.556Z,3.80
2023-03-03T07:32:03.000Z,4.10
2023-03-03T07:34:47.727Z,4.40
2023-03-03T07:37:30.884Z,4.40
2023-03-03T07:40:00.881Z,5.00
2023-03-03T07:42:41.961Z,5.60
2023-03-03T07:45:37.654Z,5.70
2023-03-03T07:48:13.445Z,5.50
2023-03-03T07:50:41.697Z,5.40
2023-03-03T07:53:34.578Z,5.60
2023-03-03T07:56:02.131Z,5.80
2023-03-03T07:58:40.682Z,6.00
2023-03-03T08:01:43.414Z,6.00
2023-03-03T08:04:38.997Z,6.60
2023-03-03T08:07:21.333Z,8.10
2023-03-03T08:09:59.994Z,9.30
2023-03-03T08:12:47.091Z,9.30
2023-03-03T08:15:31.165Z,9.00
2023-03-03T08:18:01.690Z,8.50
2023-03-03T08:20:45.422Z,8.10
2023-03-03T08:23:16.788Z,8.60
2023-03-03T08:25:44.717Z,9.50
2023-03-03T08:28:13.898Z,9.90
2023-03-03T08:30:41.710Z,10.30
2023-03-03T08:33:09.041Z,10.70
2023-03-03T08:35:36.527Z,11.00
2023-03-03T08:38:05.028Z,11.00
2023-03-03T08:40:33.122Z,10.10
2023-03-03T08:43:00.118Z,10.50
2023-03-03T08:45:27.779Z,11.30
2023-03-03T08:47:55.447Z,11.30
2023-03-03T08:50:23.248Z,11.70
2023-03-03T08:52:50.452Z,11.80
2023-03-03T08:55:18.217Z,12.20
2023-03-03T08:57:45.174Z,11.60
2023-03-03T09:03:35.710Z,10.90
2023-03-03T09:06:02.724Z,10.70
2023-03-03T09:08:29.662Z,10.40
2023-03-03T09:10:56.609Z,11.00
2023-03-03T09:13:23.494Z,11.80
2023-03-03T09:15:50.691Z,12.20
2023-03-03T09:18:45.816Z,12.50
2023-03-03T09:21:33.050Z,12.80
2023-03-03T09:24:00.857Z,12.30
2023-03-03T09:26:39.618Z,12.70
2023-03-03T09:29:15.437Z,14.30
2023-03-03T09:31:54.831Z,15.40
2023-03-03T09:34:36.528Z,15.10
2023-03-03T09:37:37.236Z,13.50
2023-03-03T09:41:09.740Z,13.60
2023-03-03T09:44:35.565Z,14.20
2023-03-03T09:48:02.458Z,14.90
2023-03-03T09:51:13.370Z,15.80
2023-03-03T09:54:16.877Z,16.60
2023-03-03T09:57:17.449Z,17.80
2023-03-03T10:00:49.963Z,18.40
2023-03-03T10:04:12.325Z,18.10
2023-03-03T10:07:04.047Z,18.70
2023-03-03T10:10:21.210Z,18.40
2023-03-03T10:13:20.511Z,18.90
2023-03-03T10:16:34.049Z,21.60
2023-03-03T10:19:35.922Z,23.20
2023-03-03T10:22:20.403Z,22.90
2023-03-03T10:25:20.853Z,20.00
2023-03-03T10:28:06.006Z,20.60
2023-03-03T10:31:05.610Z,21.30
2023-03-03T10:34:06.174Z,21.30
2023-03-03T10:37:20.679Z,21.70
2023-03-03T10:40:22.798Z,21.50
2023-03-03T10:43:35.193Z,20.30
2023-03-03T10:46:42.004Z,20.70
2023-03-03T10:49:51.529Z,20.80
2023-03-03T10:52:51.608Z,21.40
2023-03-03T10:55:50.116Z,20.90
2023-03-03T10:58:57.986Z,21.30
2023-03-03T11:01:56.868Z,22.00
2023-03-03T11:04:51.397Z,23.10
2023-03-03T11:07:44.149Z,22.60
2023-03-03T11:10:47.976Z,23.50
2023-03-03T11:14:00.241Z,24.00
2023-03-03T11:17:11.557Z,23.80
2023-03-03T11:20:09.618Z,24.20
2023-03-03T11:23:07.572Z,24.10
2023-03-03T11:25:55.585Z,24.00
2023-03-03T11:28:58.884Z,23.60
2023-03-03T11:32:18.036Z,23.30
2023-03-03T11:35:16.645Z,23.10
2023-03-03T11:38:04.263Z,22.10
2023-03-03T11:40:58.928Z,22.90
2023-03-03T11:43:47.188Z,21.60
2023-03-03T11:46:25.266Z,21.20
2023-03-03T11:49:18.407Z,22.40
2023-03-03T11:52:53.071Z,23.50
2023-03-03T11:55:36.067Z,23.30
2023-03-03T11:58:50.630Z,23.20
2023-03-03T12:01:57.841Z,23.50
2023-03-03T12:04:57.178Z,24.40
2023-03-03T12:08:01.702Z,23.90
2023-03-03T12:11:07.692Z,24.40
2023-03-03T12:14:05.988Z,25.20
2023-03-03T12:17:11.795Z,24.90
2023-03-03T12:20:05.529Z,25.60
2023-03-03T12:22:45.854Z,25.90
2023-03-03T12:25:40.826Z,27.20
2023-03-03T12:28:27.008Z,26.70
2023-03-03T12:31:15.097Z,24.70
2023-03-03T12:33:54.865Z,22.30
2023-03-03T12:37:07.422Z,21.50
2023-03-03T12:39:47.637Z,22.70
2023-03-03T12:42:49.117Z,21.80
2023-03-03T12:46:19.606Z,23.60
2023-03-03T12:48:48.267Z,23.80
2023-03-03T12:51:28.100Z,23.40
2023-03-03T12:54:19.941Z,22.90
2023-03-03T12:57:11.037Z,22.80
2023-03-03T13:00:24.267Z,25.40
2023-03-03T13:03:21.778Z,24.50
2023-03-03T13:06:22.091Z,25.00
2023-03-03T13:09:00.863Z,24.60
2023-03-03T13:11:50.930Z,25.70
2023-03-03T13:14:47.360Z,24.80
2023-03-03T13:17:34.763Z,24.60
2023-03-03T13:20:12.837Z,24.10
2023-03-03T13:23:04.034Z,25.60
2023-03-03T13:25:57.620Z,26.40
2023-03-03T13:28:56.630Z,23.50
2023-03-03T13:31:39.297Z,22.40
2023-03-03T13:34:40.285Z,24.80
2023-03-03T13:37:24.431Z,23.50
2023-03-03T13:40:03.430Z,23.30
2023-03-03T13:42:56.085Z,22.80
2023-03-03T13:46:05.662Z,23.60
2023-03-03T13:49:18.452Z,22.50
2023-03-03T13:52:26.898Z,21.60
2023-03-03T13:55:38.878Z,21.90
2023-03-03T13:58:57.000Z,21.00
2023-03-03T14:01:50.593Z,20.70
2023-03-03T14:05:01.117Z,20.80
2023-03-03T14:07:52.122Z,21.00
2023-03-03T14:10:44.175Z,21.40
2023-03-03T14:13:49.325Z,21.70
2023-03-03T14:17:01.878Z,20.30
2023-03-03T14:19:40.599Z,19.60
2023-03-03T14:22:38.134Z,19.80
2023-03-03T14:25:09.767Z,20.80
2023-03-03T14:27:48.518Z,20.60
2023-03-03T14:30:41.837Z,20.80
2023-03-03T14:33:09.122Z,20.60
2023-03-03T14:35:42.325Z,20.70
2023-03-03T14:38:12.877Z,19.70
2023-03-03T14:40:45.902Z,19.00
2023-03-03T14:43:37.225Z,18.30
2023-03-03T14:46:31.303Z,18.60
2023-03-03T14:49:04.138Z,19.50
2023-03-03T14:51:45.284Z,18.80
2023-03-03T14:54:26.676Z,18.90
2023-03-03T14:57:12.016Z,19.10
2023-03-03T14:59:40.839Z,19.00
2023-03-03T15:02:16.693Z,19.00
2023-03-03T15:04:47.053Z,18.60
2023-03-03T15:07:37.057Z,18.40
2023-03-03T15:10:07.653Z,19.10
2023-03-03T15:12:41.837Z,19.40
2023-03-03T15:15:22.270Z,19.70
2023-03-03T15:18:05.211Z,19.30
2023-03-03T15:21:32.040Z,19.60
2023-03-03T15:24:26.394Z,19.30
2023-03-03T15:27:10.282Z,19.30
2023-03-03T15:30:37.611Z,18.50
2023-03-03T15:33:59.186Z,17.90
2023-03-03T15:37:11.599Z,18.00
2023-03-03T15:40:09.245Z,18.00
2023-03-03T15:43:32.280Z,17.70
2023-03-03T15:46:23.597Z,17.20
2023-03-03T15:49:05.379Z,17.30
2023-03-03T15:52:28.288Z,17.40
2023-03-03T15:55:58.913Z,17.20
2023-03-03T15:59:21.857Z,17.00
2023-03-03T16:02:25.147Z,16.10
2023-03-03T16:05:49.466Z,15.70
2023-03-03T16:08:43.182Z,15.10
2023-03-03T16:11:38.902Z,14.30
2023-03-03T16:14:53.841Z,14.20
2023-03-03T16:17:48.892Z,13.80
2023-03-03T16:20:51.998Z,13.40
2023-03-03T16:24:39.717Z,13.10
2023-03-03T16:27:30.454Z,12.30
2023-03-03T16:30:40.004Z,11.30
2023-03-03T16:33:55.774Z,10.80
2023-03-03T16:36:51.628Z,10.30
2023-03-03T16:39:34.361Z,9.80
2023-03-03T16:42:25.954Z,9.30
2023-03-03T16:45:32.128Z,9.00
2023-03-03T16:48:32.850Z,8.40
2023-03-03T16:51:41.332Z,8.00
2023-03-03T16:54:58.375Z,7.60
2023-03-03T16:57:57.302Z,7.20
2023-03-03T17:00:34.070Z,7.00
2023-03-03T17:03:41.930Z,6.90
2023-03-03T17:06:48.826Z,6.60
2023-03-03T17:09:51.557Z,6.50
2023-03-03T17:12:45.383Z,6.30
2023-03-03T17:15:39.321Z,6.10
2023-03-03T17:18:45.193Z,6.00
2023-03-03T17:22:18.179Z,5.90
2023-03-03T17:25:22.778Z,5.80
2023-03-03T17:28:30.253Z,5.70
2023-03-03T17:31:28.990Z,5.60
2023-03-03T17:34:20.870Z,5.50
2023-03-03T17:37:43.675Z,5.50
2023-03-03T17:40:57.711Z,5.40
2023-03-03T17:44:16.276Z,5.30
2023-03-03T17:46:59.049Z,5.20
2023-03-03T17:50:08.268Z,5.10
2023-03-03T17:53:07.290Z,5.00
2023-03-03T17:56:13.788Z,4.80
2023-03-03T17:58:56.501Z,4.70
2023-03-03T18:02:26.330Z,4.60
2023-03-03T18:05:23.959Z,4.50
2023-03-03T18:08:47.883Z,4.30
2023-03-03T18:11:50.155Z,4.30
2023-03-03T18:14:40.042Z,4.20
2023-03-03T18:18:16.835Z,4.20
2023-03-03T18:21:20.929Z,4.10
2023-03-03T18:23:50.217Z,4.10
2023-03-03T18:26:38.835Z,4.10
2023-03-03T18:29:18.046Z,4.00
2023-03-03T18:32:21.535Z,3.90
2023-03-03T18:34:48.525Z,3.90
2023-03-03T18:37:30.272Z,3.90
2023-03-03T18:40:03.083Z,3.90
2023-03-03T18:42:43.759Z,3.90
2023-03-03T18:45:19.865Z,3.80
2023-03-03T18:48:13.212Z,3.70
2023-03-03T18:50:52.288Z,3.50
2023-03-03T18:53:30.921Z,3.40
2023-03-03T18:56:03.008Z,3.20
2023-03-03T18:58:42.509Z,3.00
2023-03-03T19:01:29.239Z,2.90
2023-03-03T19:04:18.392Z,2.80
2023-03-03T19:06:48.186Z,2.70
2023-03-03T19:10:01.479Z,2.60
2023-03-03T19:12:51.825Z,2.60
2023-03-03T19:15:31.173Z,2.40
2023-03-03T19:18:28.071Z,2.30
2023-03-03T19:21:21.356Z,2.20
2023-03-03T19:24:00.331Z,2.00
2023-03-03T19:26:30.260Z,1.90
2023-03-03T19:29:53.224Z,1.80
2023-03-03T19:33:17.528Z,1.80
2023-03-03T19:36:19.183Z,1.60
2023-03-03T19:39:36.093Z,1.40
2023-03-03T19:42:55.440Z,1.20
2023-03-03T19:46:02.897Z,1.00
2023-03-03T19:48:40.041Z,0.90
2023-03-03T19:51:47.681Z,0.70
2023-03-03T19:54:56.858Z,0.60
2023-03-03T19:57:49.869Z,0.60
2023-03-03T20:00:34.447Z,0.60
2023-03-03T20:03:45.810Z,0.50
2023-03-03T20:07:31.170Z,0.40
2023-03-03T20:10:29.970Z,0.20
2023-03-03T20:14:11.940Z,0.10
2023-03-03T20:16:48.185Z,0.00
2023-03-03T20:19:45.669Z,-0.20
2023-03-03T20:22:52.815Z,-0.30
2023-03-03T20:25:48.848Z,-0.30
2023-03-03T20:29:16.164Z,-0.40
2023-03-03T20:32:16.949Z,-0.50
2023-03-03T20:35:52.725Z,-0.50
2023-03-03T20:38:39.005Z,-0.60
2023-03-03T20:41:23.552Z,-0.50
2023-03-03T20:44:32.764Z,-0.60
2023-03-03T20:47:54.278Z,-0.80
2023-03-03T20:50:49.604Z,-1.00
2023-03-03T20:54:32.728Z,-1.10
2023-03-03T20:57:33.785Z,-1.10
2023-03-03T21:00:38.865Z,-1.10
2023-03-03T21:03:42.987Z,-1.00
2023-03-03T21:06:17.675Z,-1.00
2023-03-03T21:08:53.781Z,-1.10
2023-03-03T21:11:42.095Z,-1.30
2023-03-03T21:14:38.441Z,-1.40
2023-03-03T21:17:28.691Z,-1.50
2023-03-03T21:19:55.993Z,-1.60
2023-03-03T21:22:23.722Z,-1.70
2023-03-03T21:25:01.134Z,-1.60
2023-03-03T21:27:34.373Z,-1.60
2023-03-03T21:30:16.532Z,-1.50
2023-03-03T21:32:48.990Z,-1.50
2023-03-03T21:35:23.501Z,-1.50
2023-03-03T21:37:57.658Z,-1.40
2023-03-03T21:40:29.515Z,-1.50
2023-03-03T21:42:59.893Z,-1.50
2023-03-03T21:45:27.373Z,-1.60
2023-03-03T21:47:55.021Z,-1.50
2023-03-03T21:50:22.097Z,-1.50
2023-03-03T21:52:50.036Z,-1.60
2023-03-03T21:55:17.041Z,-1.70
2023-03-03T21:57:43.890Z,-1.80
2023-03-03T22:00:12.078Z,-1.90
2023-03-03T22:02:38.941Z,-2.00
2023-03-03T22:05:07.663Z,-2.00
2023-03-03T22:07:34.803Z,-2.00
2023-03-03T22:10:01.832Z,-2.00
2023-03-03T22:12:28.763Z,-2.00
2023-03-03T22:14:55.684Z,-2.00
2023-03-03T22:17:25.365Z,-2.10
2023-03-03T22:19:52.839Z,-2.30
2023-03-03T22:22:19.708Z,-2.40
2023-03-03T22:24:46.576Z,-2.50
2023-03-03T22:27:14.282Z,-2.60
2023-03-03T22:29:41.353Z,-2.60
2023-03-03T22:32:08.332Z,-2.70
2023-03-03T22:34:35.362Z,-2.70
2023-03-03T22:37:02.287Z,-2.70
2023-03-03T22:39:29.196Z,-2.60
2023-03-03T22:41:56.140Z,-2.60
2023-03-03T22:44:23.015Z,-2.60
2023-03-03T22:46:49.856Z,-2.60
2023-03-03T22:49:16.726Z,-2.60
2023-03-03T22:51:43.705Z,-2.60
2023-03-03T22:54:10.597Z,-2.70
2023-03-03T22:56:37.470Z,-2.70
2023-03-03T22:59:04.450Z,-2.70
2023-03-03T23:01:31.331Z,-2.80
2023-03-03T23:03:58.246Z,-2.90
2023-03-03T23:06:25.100Z,-2.90
2023-03-03T23:08:52.145Z,-2.90
2023-03-03T23:11:19.059Z,-2.90
2023-03-03T23:13:45.962Z,-2.90
2023-03-03T23:16:12.852Z,-3.00
2023-03-03T23:18:39.806Z,-2.90
2023-03-03T23:21:06.793Z,-3.00
2023-03-03T23:23:34.044Z,-3.00
2023-03-03T23:26:01.012Z,-2.90
2023-03-03T23:28:27.879Z,-2.90
2023-03-03T23:30:54.820Z,-3.10
2023-03-03T23:33:21.769Z,-3.20
2023-03-03T23:35:49.740Z,-3.20
2023-03-03T23:38:17.576Z,-3.10
2023-03-03T23:40:46.658Z,-3.10
2023-03-03T23:43:14.833Z,-3.10
2023-03-03T23:45:41.823Z,-3.10
2023-03-03T23:48:09.065Z,-3.10
2023-03-03T23:50:39.200Z,-3.20
2023-03-03T23:53:07.727Z,-3.20
2023-03-03T23:55:36.212Z,-3.20
2023-03-03T23:58:04.394Z,-3.20
